createdAt,value
2022-12-14T00:01:20.329Z,15.15
2022-12-14T00:03:48.141Z,14.93
2022-12-14T00:06:16.847Z,15.68
2022-12-14T00:08:43.993Z,13.93
2022-12-14T00:11:11.343Z,13.68
2022-12-14T00:13:39.459Z,16.98
2022-12-14T00:16:09.150Z,15.13
2022-12-14T00:18:36.451Z,13.98
2022-12-14T00:21:06.519Z,14.68
2022-12-14T00:23:38.654Z,13.57
2022-12-14T00:26:08.221Z,13.75
2022-12-14T00:28:35.381Z,14.52
2022-12-14T00:31:02.565Z,14.20
2022-12-14T00:33:29.733Z,12.53
2022-12-14T00:35:56.783Z,14.13
2022-12-14T00:38:24.059Z,11.82
2022-12-14T00:40:51.600Z,12.02
2022-12-14T00:43:18.697Z,12.32
2022-12-14T00:45:45.872Z,13.15
2022-12-14T00:48:13.370Z,13.45
2022-12-14T00:50:40.841Z,13.80
2022-12-14T00:53:07.944Z,12.57
2022-12-14T00:55:39.610Z,13.02
2022-12-14T00:58:07.209Z,12.77
2022-12-14T01:00:34.364Z,12.63
2022-12-14T01:03:01.552Z,11.53
2022-12-14T01:05:28.777Z,12.82
2022-12-14T01:07:55.965Z,14.05
2022-12-14T01:10:23.374Z,14.75
2022-12-14T01:12:50.348Z,14.00
2022-12-14T01:15:17.514Z,14.15
2022-12-14T01:17:44.598Z,12.93
2022-12-14T01:20:12.006Z,14.90
2022-12-14T01:22:39.095Z,12.35
2022-12-14T01:25:06.328Z,12.17
2022-12-14T01:27:33.402Z,13.82
2022-12-14T01:30:00.525Z,14.95
2022-12-14T01:32:27.613Z,13.23
2022-12-14T01:34:54.714Z,12.77
2022-12-14T01:37:22.049Z,14.98
2022-12-14T01:39:49.090Z,15.50
2022-12-14T01:42:16.578Z,13.90
2022-12-14T01:44:44.061Z,11.80
2022-12-14T01:47:18.860Z,12.67
2022-12-14T01:49:49.727Z,13.07
2022-12-14T01:52:36.783Z,14.73
2022-12-14T01:55:03.789Z,12.90
2022-12-14T01:57:34.896Z,13.68
2022-12-14T02:00:06.885Z,13.83
2022-12-14T02:02:35.208Z,12.23
2022-12-14T02:05:02.729Z,14.30
2022-12-14T02:07:30.345Z,12.23
2022-12-14T02:10:00.106Z,12.02
2022-12-14T02:12:30.231Z,13.38
2022-12-14T02:14:58.056Z,11.70
2022-12-14T02:17:25.185Z,11.27
2022-12-14T02:19:52.337Z,13.23
2022-12-14T02:22:33.612Z,11.30
2022-12-14T02:25:04.497Z,11.93
2022-12-14T02:27:51.504Z,12.38
2022-12-14T02:30:18.609Z,12.48
2022-12-14T02:33:05.602Z,11.93
2022-12-14T02:35:52.645Z,12.13
2022-12-14T02:38:20.771Z,10.90
2022-12-14T02:40:47.786Z,10.85
2022-12-14T02:43:22.672Z,11.77
2022-12-14T02:46:05.659Z,11.63
2022-12-14T02:48:36.628Z,13.00
2022-12-14T02:51:06.994Z,12.10
2022-12-14T02:53:34.097Z,11.73
2022-12-14T02:56:04.791Z,11.55
2022-12-14T02:58:35.760Z,13.65
2022-12-14T03:01:03.398Z,13.63
2022-12-14T03:03:30.908Z,12.10
2022-12-14T03:06:00.669Z,11.80
2022-12-14T03:08:29.415Z,12.10
2022-12-14T03:10:57.928Z,12.87
2022-12-14T03:13:27.747Z,12.05
2022-12-14T03:15:57.850Z,10.25
2022-12-14T03:18:27.434Z,12.00
2022-12-14T03:20:56.221Z,11.65
2022-12-14T03:23:25.325Z,12.05
2022-12-14T03:25:56.085Z,12.48
2022-12-14T03:28:28.548Z,12.07
2022-12-14T03:31:00.894Z,11.77
2022-12-14T03:33:30.328Z,11.82
2022-12-14T03:36:01.654Z,10.00
2022-12-14T03:38:34.465Z,12.73
2022-12-14T03:41:07.792Z,12.40
2022-12-14T03:43:34.886Z,11.70
2022-12-14T03:46:08.981Z,11.88
2022-12-14T03:48:40.103Z,10.85
2022-12-14T03:51:15.570Z,11.32
2022-12-14T03:53:48.028Z,11.50
2022-12-14T03:56:16.289Z,11.52
2022-12-14T03:58:55.374Z,11.25
2022-12-14T04:01:32.948Z,11.73
2022-12-14T04:04:02.736Z,11.63
2022-12-14T04:06:29.784Z,11.35
2022-12-14T04:09:01.635Z,9.73
2022-12-14T04:11:50.992Z,11.02
2022-12-14T04:14:41.888Z,12.50
2022-12-14T04:17:31.711Z,10.73
2022-12-14T04:20:06.360Z,12.38
2022-12-14T04:22:35.313Z,12.77
2022-12-14T04:25:23.928Z,14.00
2022-12-14T04:27:55.329Z,11.20
2022-12-14T04:30:22.447Z,12.25
2022-12-14T04:32:51.641Z,12.55
2022-12-14T04:35:21.823Z,11.25
2022-12-14T04:37:50.820Z,13.57
2022-12-14T04:40:22.682Z,13.45
2022-12-14T04:42:54.968Z,15.13
2022-12-14T04:45:25.441Z,15.17
2022-12-14T04:47:57.336Z,14.48
2022-12-14T04:50:29.240Z,14.15
2022-12-14T04:53:01.195Z,12.15
2022-12-14T04:55:32.284Z,11.65
2022-12-14T04:58:03.392Z,12.45
2022-12-14T05:00:32.188Z,13.82
2022-12-14T05:02:59.333Z,14.85
2022-12-14T05:05:30.927Z,12.57
2022-12-14T05:08:05.359Z,13.95
2022-12-14T05:10:39.792Z,13.63
2022-12-14T05:13:10.267Z,13.02
2022-12-14T05:15:42.755Z,11.80
2022-12-14T05:18:10.191Z,13.20
2022-12-14T05:20:37.231Z,13.45
2022-12-14T05:23:04.831Z,12.38
2022-12-14T05:25:32.079Z,12.20
2022-12-14T05:27:59.103Z,12.30
2022-12-14T05:30:26.382Z,11.68
2022-12-14T05:32:53.672Z,11.60
2022-12-14T05:35:21.095Z,11.32
2022-12-14T05:37:49.418Z,13.85
2022-12-14T05:40:16.995Z,13.63
2022-12-14T05:42:46.022Z,13.10
2022-12-14T05:45:16.002Z,13.07
2022-12-14T05:47:43.106Z,13.32
2022-12-14T05:50:10.231Z,13.93
2022-12-14T05:52:37.278Z,13.77
2022-12-14T05:55:05.033Z,14.73
2022-12-14T05:57:32.299Z,12.07
2022-12-14T06:00:00.244Z,14.20
2022-12-14T06:02:27.472Z,12.67
2022-12-14T06:04:54.706Z,14.70
2022-12-14T06:07:26.094Z,15.52
2022-12-14T06:09:54.761Z,12.55
2022-12-14T06:12:21.850Z,15.63
2022-12-14T06:14:48.884Z,14.00
2022-12-14T06:17:15.988Z,14.63
2022-12-14T06:19:43.220Z,12.23
2022-12-14T06:22:17.124Z,12.73
2022-12-14T06:24:44.149Z,11.55
2022-12-14T06:27:11.233Z,12.63
2022-12-14T06:29:38.156Z,12.97
2022-12-14T06:32:05.362Z,12.20
2022-12-14T06:34:36.859Z,12.98
2022-12-14T06:37:06.430Z,12.50
2022-12-14T06:39:33.521Z,12.32
2022-12-14T06:42:00.601Z,13.05
2022-12-14T06:44:27.661Z,13.23
2022-12-14T06:46:55.632Z,13.88
2022-12-14T06:49:22.777Z,16.75
2022-12-14T06:51:50.026Z,14.73
2022-12-14T06:54:17.605Z,12.48
2022-12-14T06:56:45.842Z,12.93
2022-12-14T06:59:13.298Z,12.40
2022-12-14T07:01:41.134Z,13.18
2022-12-14T07:04:08.736Z,13.23
2022-12-14T07:06:37.834Z,14.05
2022-12-14T07:09:05.791Z,12.18
2022-12-14T07:11:33.245Z,12.77
2022-12-14T07:14:01.180Z,13.63
2022-12-14T07:16:29.634Z,14.97
2022-12-14T07:18:57.097Z,13.50
2022-12-14T07:21:24.605Z,13.33
2022-12-14T07:23:52.381Z,12.23
2022-12-14T07:26:24.271Z,13.88
2022-12-14T07:28:51.618Z,16.95
2022-12-14T07:31:22.049Z,15.23
2022-12-14T07:33:49.374Z,17.75
2022-12-14T07:36:17.773Z,14.02
2022-12-14T07:38:45.542Z,13.25
2022-12-14T07:41:18.937Z,13.45
2022-12-14T07:43:49.951Z,14.52
2022-12-14T07:46:18.588Z,13.15
2022-12-14T07:48:46.711Z,13.63
2022-12-14T07:51:15.078Z,13.73
2022-12-14T07:53:42.594Z,11.90
2022-12-14T07:56:11.859Z,13.57
2022-12-14T07:58:39.237Z,12.45
2022-12-14T08:01:11.308Z,14.70
2022-12-14T08:03:38.889Z,13.32
2022-12-14T08:06:07.323Z,13.02
2022-12-14T08:08:34.724Z,14.23
2022-12-14T08:11:02.226Z,13.00
2022-12-14T08:13:29.742Z,13.57
2022-12-14T08:15:57.161Z,12.63
2022-12-14T08:18:24.190Z,13.43
2022-12-14T08:20:53.334Z,14.55
2022-12-14T08:23:21.280Z,12.98
2022-12-14T08:25:53.292Z,12.93
2022-12-14T08:28:20.636Z,13.93
2022-12-14T08:30:47.701Z,15.18
2022-12-14T08:33:14.783Z,13.52
2022-12-14T08:35:41.952Z,14.02
2022-12-14T08:38:08.976Z,14.02
2022-12-14T08:40:36.468Z,12.70
2022-12-14T08:43:03.694Z,12.45
2022-12-14T08:45:30.828Z,12.85
2022-12-14T08:47:58.451Z,12.48
2022-12-14T08:50:25.753Z,12.63
2022-12-14T08:52:52.860Z,14.03
2022-12-14T08:55:27.052Z,12.55
2022-12-14T08:57:55.471Z,11.45
2022-12-14T09:00:22.788Z,13.07
2022-12-14T09:02:51.026Z,13.30
2022-12-14T09:05:18.314Z,14.70
2022-12-14T09:07:45.836Z,14.43
2022-12-14T09:10:13.399Z,12.53
2022-12-14T09:12:40.551Z,14.23
2022-12-14T09:15:07.957Z,16.67
2022-12-14T09:17:35.137Z,17.92
2022-12-14T09:20:02.258Z,14.55
2022-12-14T09:22:29.260Z,12.18
2022-12-14T09:24:56.723Z,14.43
2022-12-14T09:27:23.878Z,15.68
2022-12-14T09:29:51.216Z,15.70
2022-12-14T09:32:18.294Z,15.35
2022-12-14T09:34:45.415Z,15.02
2022-12-14T09:37:12.863Z,14.75
2022-12-14T09:39:39.823Z,12.52
2022-12-14T09:42:17.579Z,16.98
2022-12-14T09:45:04.593Z,16.08
2022-12-14T09:47:31.680Z,14.52
2022-12-14T09:50:07.643Z,12.25
2022-12-14T09:52:41.346Z,13.32
2022-12-14T09:55:28.288Z,10.77
2022-12-14T09:58:00.572Z,12.25
2022-12-14T10:00:30.919Z,12.45
2022-12-14T10:03:11.293Z,12.27
2022-12-14T10:05:45.305Z,14.50
2022-12-14T10:08:13.411Z,12.20
2022-12-14T10:10:41.556Z,13.43
2022-12-14T10:13:11.890Z,14.20
2022-12-14T10:15:43.211Z,15.15
2022-12-14T10:18:49.325Z,14.63
2022-12-14T10:21:12.827Z,13.83
2022-12-14T10:23:42.639Z,12.98
2022-12-14T10:26:12.916Z,14.35
2022-12-14T10:28:46.335Z,13.93
2022-12-14T10:31:16.996Z,16.23
2022-12-14T10:33:45.556Z,15.90
2022-12-14T10:36:27.695Z,13.82
2022-12-14T10:38:54.853Z,14.93
2022-12-14T10:41:26.129Z,16.13
2022-12-14T10:43:59.100Z,16.02
2022-12-14T10:46:46.214Z,14.48
2022-12-14T10:49:17.963Z,16.58
2022-12-14T10:51:51.024Z,16.00
2022-12-14T10:54:18.162Z,17.25
2022-12-14T10:56:49.947Z,18.67
2022-12-14T10:59:18.449Z,15.93
2022-12-14T11:01:46.852Z,17.40
2022-12-14T11:04:29.777Z,15.63
2022-12-14T11:06:58.717Z,14.68
2022-12-14T11:09:26.086Z,15.10
2022-12-14T11:12:05.075Z,19.05
2022-12-14T11:14:32.476Z,19.88
2022-12-14T11:16:59.662Z,16.30
2022-12-14T11:19:28.178Z,14.60
2022-12-14T11:22:18.452Z,14.48
2022-12-14T11:24:49.178Z,14.90
2022-12-14T11:27:19.303Z,14.95
2022-12-14T11:29:49.240Z,15.85
2022-12-14T11:32:21.019Z,14.27
2022-12-14T11:34:54.103Z,15.32
2022-12-14T11:37:22.296Z,15.97
2022-12-14T11:39:51.555Z,14.48
2022-12-14T11:42:19.895Z,16.15
2022-12-14T11:44:47.912Z,16.30
2022-12-14T11:47:17.206Z,15.88
2022-12-14T11:49:44.328Z,14.47
2022-12-14T11:52:12.770Z,15.82
2022-12-14T11:54:41.335Z,15.95
2022-12-14T11:57:10.499Z,15.70
2022-12-14T11:59:53.505Z,15.75
2022-12-14T12:02:21.666Z,15.63
2022-12-14T12:04:52.799Z,17.85
2022-12-14T12:07:25.411Z,15.77
2022-12-14T12:09:52.664Z,16.67
2022-12-14T12:12:21.381Z,16.08
2022-12-14T12:14:53.403Z,17.65
2022-12-14T12:17:38.222Z,17.17
2022-12-14T12:20:13.218Z,17.33
2022-12-14T12:22:43.917Z,17.07
2022-12-14T12:25:36.759Z,17.98
2022-12-14T12:28:06.681Z,15.98
2022-12-14T12:30:34.765Z,18.33
2022-12-14T12:33:06.514Z,18.20
2022-12-14T12:35:37.607Z,17.38
2022-12-14T12:38:24.558Z,16.15
2022-12-14T12:41:11.522Z,16.33
2022-12-14T12:43:41.223Z,15.70
2022-12-14T12:46:16.725Z,17.13
2022-12-14T12:48:43.969Z,15.77
2022-12-14T12:51:13.531Z,18.67
2022-12-14T12:53:43.929Z,16.20
2022-12-14T12:56:13.438Z,15.75
2022-12-14T12:58:41.309Z,17.80
2022-12-14T13:01:16.632Z,16.60
2022-12-14T13:03:46.287Z,16.90
2022-12-14T13:06:31.440Z,15.32
2022-12-14T13:09:01.701Z,16.77
2022-12-14T13:11:33.018Z,17.47
2022-12-14T13:14:06.118Z,16.45
2022-12-14T13:16:35.673Z,16.65
2022-12-14T13:19:40.434Z,19.07
2022-12-14T13:22:03.334Z,16.92
2022-12-14T13:24:32.589Z,17.35
2022-12-14T13:27:19.611Z,18.25
2022-12-14T13:29:56.779Z,17.63
2022-12-14T13:32:23.886Z,16.45
2022-12-14T13:34:58.533Z,15.30
2022-12-14T13:37:45.561Z,15.95
2022-12-14T13:40:20.035Z,15.90
2022-12-14T13:42:53.667Z,15.97
2022-12-14T13:45:22.474Z,17.92
2022-12-14T13:47:53.858Z,18.00
2022-12-14T13:50:37.385Z,16.75
2022-12-14T13:53:12.322Z,16.25
2022-12-14T13:55:40.862Z,16.40
2022-12-14T13:58:23.848Z,18.23
2022-12-14T14:00:51.965Z,17.63
2022-12-14T14:03:39.077Z,16.95
2022-12-14T14:06:09.604Z,22.33
2022-12-14T14:08:41.819Z,20.50
2022-12-14T14:11:37.824Z,21.20
2022-12-14T14:14:25.109Z,18.40
2022-12-14T14:16:56.668Z,18.08
2022-12-14T14:19:25.281Z,19.75
2022-12-14T14:22:27.877Z,19.30
2022-12-14T14:24:59.778Z,18.25
2022-12-14T14:27:30.124Z,20.17
2022-12-14T14:29:58.068Z,22.17
2022-12-14T14:32:26.198Z,19.83
2022-12-14T14:34:53.444Z,24.02
2022-12-14T14:37:22.464Z,21.05
2022-12-14T14:40:02.569Z,18.42
2022-12-14T14:42:46.022Z,20.80
2022-12-14T14:45:33.014Z,21.90
2022-12-14T14:48:02.177Z,18.33
2022-12-14T14:50:32.265Z,19.23
2022-12-14T14:52:59.334Z,18.55
2022-12-14T14:58:22.342Z,17.08
2022-12-14T15:00:54.960Z,20.07
2022-12-14T15:03:26.277Z,18.67
2022-12-14T15:05:53.581Z,19.67
2022-12-14T15:08:29.389Z,19.98
2022-12-14T15:10:57.253Z,21.83
2022-12-14T15:13:25.823Z,22.63
2022-12-14T15:15:56.176Z,21.77
2022-12-14T15:18:25.877Z,22.30
2022-12-14T15:20:56.261Z,20.90
2022-12-14T15:23:23.605Z,19.50
2022-12-14T15:25:59.736Z,19.63
2022-12-14T15:28:28.545Z,16.40
2022-12-14T15:30:57.085Z,18.83
2022-12-14T15:33:27.247Z,18.83
2022-12-14T15:35:54.636Z,18.25
2022-12-14T15:38:32.129Z,17.80
2022-12-14T15:41:01.408Z,17.53
2022-12-14T15:43:29.183Z,17.98
2022-12-14T15:46:03.115Z,19.30
2022-12-14T15:48:32.809Z,22.95
2022-12-14T15:51:03.806Z,25.20
2022-12-14T15:53:33.734Z,21.17
2022-12-14T15:56:08.334Z,19.10
2022-12-14T15:58:39.471Z,20.83
2022-12-14T16:01:21.617Z,18.97
2022-12-14T16:03:51.711Z,18.10
2022-12-14T16:06:19.331Z,18.23
2022-12-14T16:08:51.659Z,24.65
2022-12-14T16:11:23.628Z,22.90
2022-12-14T16:13:50.975Z,26.60
2022-12-14T16:16:18.363Z,24.83
2022-12-14T16:18:50.644Z,23.83
2022-12-14T16:21:26.046Z,20.20
2022-12-14T16:23:53.237Z,22.30
2022-12-14T16:26:22.816Z,20.40
2022-12-14T16:28:49.914Z,21.55
2022-12-14T16:31:20.265Z,21.80
2022-12-14T16:33:50.367Z,21.10
2022-12-14T16:36:18.671Z,21.58
2022-12-14T16:39:03.699Z,22.95
2022-12-14T16:41:39.887Z,20.83
2022-12-14T16:44:08.639Z,22.98
2022-12-14T16:46:35.801Z,20.75
2022-12-14T16:49:19.041Z,20.25
2022-12-14T16:52:06.386Z,23.58
2022-12-14T16:54:34.499Z,23.45
2022-12-14T16:57:05.283Z,24.58
2022-12-14T16:59:48.934Z,22.77
2022-12-14T17:02:36.451Z,23.02
2022-12-14T17:05:05.732Z,24.25
2022-12-14T17:07:34.113Z,24.13
2022-12-14T17:10:01.275Z,23.42
2022-12-14T17:12:27.987Z,25.25
2022-12-14T17:14:55.174Z,25.85
2022-12-14T17:17:25.466Z,24.55
2022-12-14T17:19:52.602Z,26.35
2022-12-14T17:22:23.744Z,26.30
2022-12-14T17:24:50.841Z,26.27
2022-12-14T17:27:18.739Z,24.35
2022-12-14T17:29:46.884Z,22.90
2022-12-14T17:32:15.399Z,25.75
2022-12-14T17:34:45.241Z,23.73
2022-12-14T17:37:15.411Z,24.42
2022-12-14T17:39:42.564Z,24.95
2022-12-14T17:42:11.964Z,25.13
2022-12-14T17:44:40.343Z,25.15
2022-12-14T17:47:07.520Z,26.52
2022-12-14T17:49:34.632Z,24.45
2022-12-14T17:52:04.188Z,25.67
2022-12-14T17:54:32.129Z,25.17
2022-12-14T17:56:59.644Z,28.55
2022-12-14T17:59:26.784Z,26.50
2022-12-14T18:01:54.052Z,27.17
2022-12-14T18:04:21.240Z,23.42
2022-12-14T18:06:48.299Z,27.83
2022-12-14T18:09:16.131Z,28.33
2022-12-14T18:12:00.532Z,29.80
2022-12-14T18:14:30.233Z,27.27
2022-12-14T18:17:00.894Z,28.23
2022-12-14T18:19:29.761Z,25.47
2022-12-14T18:21:56.948Z,27.92
2022-12-14T18:24:26.187Z,26.63
2022-12-14T18:26:53.508Z,29.00
2022-12-14T18:29:20.608Z,29.65
2022-12-14T18:31:49.546Z,29.40
2022-12-14T18:34:17.010Z,26.30
2022-12-14T18:36:44.142Z,27.50
2022-12-14T18:39:11.192Z,26.20
2022-12-14T18:41:38.311Z,28.13
2022-12-14T18:44:05.639Z,27.02
2022-12-14T18:46:32.889Z,26.27
2022-12-14T18:49:00.191Z,28.77
2022-12-14T18:51:27.338Z,27.30
2022-12-14T18:53:55.285Z,27.75
2022-12-14T18:56:23.275Z,27.15
2022-12-14T18:58:50.657Z,28.63
2022-12-14T19:01:20.937Z,27.58
2022-12-14T19:03:48.338Z,34.72
2022-12-14T19:09:04.593Z,29.30
2022-12-14T19:11:39.313Z,28.45
2022-12-14T19:14:06.824Z,27.70
2022-12-14T19:16:34.035Z,27.60
2022-12-14T19:19:01.159Z,27.90
2022-12-14T19:21:29.642Z,25.77
2022-12-14T19:23:56.881Z,29.30
2022-12-14T19:26:24.079Z,26.60
2022-12-14T19:28:51.202Z,27.67
2022-12-14T19:31:18.413Z,26.20
2022-12-14T19:33:45.576Z,27.90
2022-12-14T19:36:12.864Z,27.85
2022-12-14T19:38:39.927Z,30.58
2022-12-14T19:41:08.251Z,28.77
2022-12-14T19:43:35.914Z,30.05
2022-12-14T19:46:07.137Z,30.83
2022-12-14T19:48:34.445Z,29.80
2022-12-14T19:51:03.970Z,31.33
2022-12-14T19:53:33.391Z,31.55
2022-12-14T19:56:00.991Z,31.38
2022-12-14T19:58:29.131Z,30.20
2022-12-14T20:00:56.576Z,31.05
2022-12-14T20:03:23.884Z,30.17
2022-12-14T20:05:52.853Z,28.43
2022-12-14T20:08:20.046Z,30.90
2022-12-14T20:10:47.314Z,34.17
2022-12-14T20:13:14.466Z,30.77
2022-12-14T20:15:47.894Z,30.40
2022-12-14T20:18:15.071Z,30.07
2022-12-14T20:20:42.398Z,31.52
2022-12-14T20:23:09.459Z,32.53
2022-12-14T20:25:36.835Z,30.55
2022-12-14T20:28:04.004Z,32.55
2022-12-14T20:30:31.642Z,28.33
2022-12-14T20:32:58.828Z,27.52
2022-12-14T20:35:26.284Z,25.90
2022-12-14T20:37:53.798Z,27.83
2022-12-14T20:40:21.174Z,25.02
2022-12-14T20:42:47.783Z,26.85
2022-12-14T20:45:14.882Z,27.75
2022-12-14T20:47:41.956Z,28.13
2022-12-14T20:50:09.042Z,26.03
2022-12-14T20:52:36.138Z,28.08
2022-12-14T20:55:03.213Z,28.50
2022-12-14T20:57:32.969Z,28.60
2022-12-14T21:00:00.151Z,27.10
2022-12-14T21:02:27.421Z,27.35
2022-12-14T21:04:54.605Z,26.75
2022-12-14T21:07:26.053Z,27.38
2022-12-14T21:09:53.462Z,27.45
2022-12-14T21:12:20.649Z,28.65
2022-12-14T21:14:48.810Z,27.50
2022-12-14T21:17:15.905Z,27.10
2022-12-14T21:19:42.659Z,29.73
2022-12-14T21:22:11.987Z,28.33
2022-12-14T21:27:27.453Z,25.33
2022-12-14T21:29:55.002Z,25.13
2022-12-14T21:32:22.604Z,25.92
2022-12-14T21:34:50.094Z,24.03
2022-12-14T21:37:17.298Z,23.80
2022-12-14T21:39:50.503Z,23.30
2022-12-14T21:42:20.606Z,25.03
2022-12-14T21:44:48.805Z,21.88
2022-12-14T21:47:18.372Z,24.77
2022-12-14T21:49:46.106Z,24.00
2022-12-14T21:52:14.470Z,23.33
2022-12-14T21:54:42.023Z,25.03
2022-12-14T21:57:33.423Z,24.75
2022-12-14T22:00:01.042Z,23.77
2022-12-14T22:02:28.717Z,23.77
2022-12-14T22:04:56.323Z,25.48
2022-12-14T22:07:25.044Z,33.47
2022-12-14T22:09:52.186Z,26.52
2022-12-14T22:12:19.235Z,26.23
2022-12-14T22:14:46.361Z,26.38
2022-12-14T22:17:14.613Z,26.35
2022-12-14T22:19:41.723Z,24.02
2022-12-14T22:22:13.020Z,26.55
2022-12-14T22:24:40.788Z,23.40
2022-12-14T22:27:07.888Z,25.02
2022-12-14T22:29:34.987Z,26.63
2022-12-14T22:32:02.625Z,26.98
2022-12-14T22:34:29.781Z,26.42
2022-12-14T22:36:56.861Z,24.00
2022-12-14T22:39:23.953Z,26.38
2022-12-14T22:41:51.053Z,26.20
2022-12-14T22:44:18.208Z,24.80
2022-12-14T22:46:45.323Z,26.15
2022-12-14T22:49:16.736Z,24.52
2022-12-14T22:51:44.028Z,26.23
2022-12-14T22:54:16.688Z,23.73
2022-12-14T22:56:46.799Z,24.10
2022-12-14T22:59:19.411Z,25.60
2022-12-14T23:01:49.922Z,23.30
2022-12-14T23:04:17.389Z,23.98
2022-12-14T23:06:44.592Z,24.75
2022-12-14T23:09:31.645Z,23.85
2022-12-14T23:12:21.852Z,22.38
2022-12-14T23:15:09.423Z,25.98
2022-12-14T23:17:56.416Z,25.80
2022-12-14T23:20:43.417Z,24.38
2022-12-14T23:23:30.889Z,22.33
2022-12-14T23:26:21.480Z,26.80
2022-12-14T23:29:08.557Z,26.85
2022-12-14T23:31:55.953Z,26.40
2022-12-14T23:34:42.515Z,26.33
2022-12-14T23:37:32.240Z,25.52
2022-12-14T23:40:18.808Z,25.63
2022-12-14T23:43:08.539Z,26.73
2022-12-14T23:45:55.560Z,24.60
2022-12-14T23:48:42.775Z,23.98
2022-12-14T23:51:29.305Z,25.80
2022-12-14T23:54:16.306Z,22.13
2022-12-14T23:57:03.288Z,25.45
2022-12-14T23:59:50.314Z,25.50
